Time;durP1;ratioP1;P1;durP2;ratioP2;P2;SDS_P1;SDS_P2;PMS_P1;PMS_P2;Temp;Humidity;BMP_temperature;BMP_pressure;BME280_temperature;BME280_humidity;BME280_pressure;Samples;Min_cycle;Max_cycle;Signal;HPM_P1;HPM_P2
2021/12/28 00:02:07;;;;;;;36.92;20.30;;;3.60;99.90;;;;;;4948428;28;20126;-81
2021/12/28 00:04:33;;;;;;;38.88;21.58;;;3.60;99.90;;;;;;4951854;28;20185;-81
2021/12/28 00:06:58;;;;;;;41.60;21.48;;;3.60;99.90;;;;;;4947204;28;20089;-82
2021/12/28 00:09:24;;;;;;;38.35;21.38;;;3.60;99.90;;;;;;4942204;28;20058;-81
2021/12/28 00:11:50;;;;;;;38.97;20.55;;;3.60;99.90;;;;;;4943554;28;20449;-81
2021/12/28 00:14:19;;;;;;;39.42;21.70;;;3.60;99.90;;;;;;4963664;28;20058;-81
2021/12/28 00:19:29;;;;;;;38.00;22.80;;;3.60;99.90;;;;;;4964511;28;20113;-81
2021/12/28 00:21:55;;;;;;;36.75;22.17;;;3.60;99.90;;;;;;4944163;28;20047;-81
2021/12/28 00:24:20;;;;;;;39.03;22.20;;;3.80;99.90;;;;;;4965813;28;20026;-81
2021/12/28 00:26:46;;;;;;;40.17;23.30;;;3.70;99.90;;;;;;4966594;28;20054;-81
2021/12/28 00:29:11;;;;;;;45.08;22.83;;;3.70;99.90;;;;;;4944740;28;20088;-81
2021/12/28 00:31:37;;;;;;;46.97;23.73;;;3.70;99.90;;;;;;4965227;28;20035;-81
2021/12/28 00:34:03;;;;;;;46.22;26.42;;;3.80;99.90;;;;;;4953312;28;20062;-81
2021/12/28 00:36:28;;;;;;;51.20;26.65;;;3.70;99.90;;;;;;4947767;28;20059;-82
2021/12/28 00:38:54;;;;;;;59.83;27.65;;;3.80;99.90;;;;;;4964497;28;20046;-81
2021/12/28 00:41:20;;;;;;;53.28;27.98;;;3.80;99.90;;;;;;4963556;28;20072;-82
2021/12/28 00:43:46;;;;;;;58.72;28.83;;;3.90;99.90;;;;;;4951560;28;20047;-81
2021/12/28 00:46:12;;;;;;;60.70;28.67;;;3.90;99.90;;;;;;4949899;28;20038;-81
2021/12/28 00:48:38;;;;;;;54.42;29.00;;;3.90;99.90;;;;;;4944860;28;20088;-81
2021/12/28 00:51:05;;;;;;;53.95;28.27;;;3.90;99.90;;;;;;4944207;28;20047;-82
2021/12/28 00:53:31;;;;;;;58.03;29.02;;;3.90;99.90;;;;;;4949036;28;20058;-81
2021/12/28 00:55:57;;;;;;;63.35;29.52;;;3.90;99.90;;;;;;4964797;28;20042;-81
2021/12/28 00:58:23;;;;;;;71.80;30.10;;;4.00;99.90;;;;;;4947210;28;20051;-81
2021/12/28 01:00:49;;;;;;;66.65;30.65;;;4.00;99.90;;;;;;4966745;28;20042;-82
2021/12/28 01:03:17;;;;;;;70.68;31.25;;;4.00;99.90;;;;;;4942206;28;20390;-82
2021/12/28 01:05:43;;;;;;;72.53;32.85;;;4.00;99.90;;;;;;4965559;28;20054;-82
2021/12/28 01:08:10;;;;;;;72.10;31.80;;;4.10;99.90;;;;;;4949882;28;20089;-82
2021/12/28 01:10:40;;;;;;;75.53;33.28;;;4.10;99.90;;;;;;4966743;28;20053;-83
2021/12/28 01:13:06;;;;;;;85.28;34.30;;;4.10;99.90;;;;;;4944506;28;20051;-82
2021/12/28 01:15:32;;;;;;;73.00;33.47;;;4.10;99.90;;;;;;4968391;28;20053;-83
2021/12/28 01:17:58;;;;;;;100.93;38.35;;;4.20;99.90;;;;;;4965426;28;20038;-83
2021/12/28 01:20:24;;;;;;;77.30;34.58;;;4.20;99.90;;;;;;4942398;28;20406;-83
2021/12/28 01:22:50;;;;;;;87.60;35.30;;;4.20;99.90;;;;;;4968257;28;20039;-83
2021/12/28 01:25:18;;;;;;;94.80;37.65;;;4.30;99.90;;;;;;4946988;28;20486;-83
2021/12/28 01:27:43;;;;;;;116.85;41.42;;;4.30;99.90;;;;;;4951007;28;20513;-83
2021/12/28 01:30:10;;;;;;;94.35;37.97;;;4.30;99.90;;;;;;4970969;28;20047;-81
2021/12/28 01:32:37;;;;;;;113.90;41.70;;;4.30;99.90;;;;;;4948471;28;20035;-81
2021/12/28 01:35:05;;;;;;;106.20;40.28;;;4.40;99.90;;;;;;4950203;28;20059;-81
2021/12/28 01:37:31;;;;;;;124.63;42.35;;;4.40;99.90;;;;;;4952118;28;20509;-81
2021/12/28 01:39:56;;;;;;;160.27;49.58;;;4.40;99.90;;;;;;4950510;28;20046;-81
2021/12/28 01:42:22;;;;;;;136.45;46.22;;;4.40;99.90;;;;;;4953759;28;20136;-81
2021/12/28 01:44:48;;;;;;;127.15;43.17;;;4.50;99.90;;;;;;4951277;28;20050;-81
2021/12/28 01:47:16;;;;;;;144.68;45.70;;;4.50;99.90;;;;;;4953873;28;20046;-81
2021/12/28 01:49:42;;;;;;;172.70;48.83;;;4.50;99.90;;;;;;4971627;28;20401;-81
2021/12/28 01:52:07;;;;;;;133.80;45.45;;;4.60;99.90;;;;;;4953764;28;20110;-82
2021/12/28 01:54:33;;;;;;;173.15;50.40;;;4.60;99.90;;;;;;4948930;28;20440;-82
2021/12/28 01:56:59;;;;;;;165.85;50.10;;;4.60;99.90;;;;;;4951178;28;20047;-81
2021/12/28 01:59:24;;;;;;;234.95;59.72;;;4.60;99.90;;;;;;4953810;28;20047;-82
2021/12/28 02:01:50;;;;;;;147.45;48.25;;;4.60;99.90;;;;;;4953995;28;20506;-81
2021/12/28 02:04:24;;;;;;;246.90;59.30;;;4.60;99.90;;;;;;4968887;28;20051;-81
2021/12/28 02:06:51;;;;;;;157.38;49.03;;;4.60;99.90;;;;;;4949544;28;20051;-81
2021/12/28 02:09:18;;;;;;;189.60;52.55;;;4.60;99.90;;;;;;4970196;28;20110;-81
2021/12/28 02:11:44;;;;;;;161.02;49.45;;;4.70;99.90;;;;;;4966282;28;20083;-81
2021/12/28 02:14:10;;;;;;;237.00;60.50;;;4.70;99.90;;;;;;4944753;28;20071;-81
2021/12/28 02:16:40;;;;;;;191.10;53.92;;;4.70;99.90;;;;;;4943987;29;20035;-82
2021/12/28 02:19:07;;;;;;;196.73;51.03;;;4.70;99.90;;;;;;4950554;28;20178;-82
2021/12/28 02:21:33;;;;;;;203.88;53.78;;;4.70;99.90;;;;;;4953929;28;20063;-82
2021/12/28 02:24:00;;;;;;;407.15;74.82;;;4.80;99.90;;;;;;4970678;28;20158;-82
2021/12/28 02:26:26;;;;;;;410.63;76.25;;;4.70;99.90;;;;;;4963177;28;20106;-82
2021/12/28 02:28:53;;;;;;;220.63;55.47;;;4.80;99.90;;;;;;4945341;28;20105;-82
2021/12/28 02:31:19;;;;;;;393.88;71.32;;;4.80;99.90;;;;;;4948467;28;20051;-82
2021/12/28 02:33:48;;;;;;;323.55;66.88;;;4.80;99.90;;;;;;4966252;28;20510;-82
2021/12/28 02:36:14;;;;;;;265.83;62.30;;;4.90;99.90;;;;;;4967260;28;20059;-82
2021/12/28 02:38:39;;;;;;;335.95;67.40;;;4.90;99.90;;;;;;4949958;28;20047;-83
2021/12/28 02:41:07;;;;;;;281.63;61.13;;;5.00;99.90;;;;;;4965113;28;20054;-82
2021/12/28 02:43:33;;;;;;;249.02;57.78;;;5.00;99.90;;;;;;4949925;28;20079;-82
2021/12/28 02:46:02;;;;;;;315.90;69.03;;;5.10;99.90;;;;;;4945209;28;20083;-82
2021/12/28 02:48:28;;;;;;;312.67;66.30;;;5.10;99.90;;;;;;4947155;28;20046;-82
2021/12/28 02:51:06;;;;;;;478.63;82.95;;;5.20;99.90;;;;;;4952156;28;20150;-82
2021/12/28 02:53:32;;;;;;;319.05;66.70;;;5.20;99.90;;;;;;4951936;28;20081;-82
2021/12/28 02:55:58;;;;;;;326.90;65.95;;;5.20;99.90;;;;;;4951741;28;20050;-82
2021/12/28 02:58:51;;;;;;;312.52;63.45;;;5.20;99.90;;;;;;4968051;28;20043;-82
2021/12/28 03:01:29;;;;;;;332.08;66.20;;;5.20;99.90;;;;;;4946631;28;20490;-82
2021/12/28 03:04:04;;;;;;;296.45;65.75;;;5.20;99.90;;;;;;4945659;28;20043;-82
2021/12/28 03:06:30;;;;;;;299.02;66.75;;;5.30;99.90;;;;;;4943142;28;20043;-82
2021/12/28 03:08:58;;;;;;;270.42;61.28;;;5.30;99.90;;;;;;4943521;28;20158;-82
2021/12/28 03:11:26;;;;;;;250.13;57.58;;;5.30;99.90;;;;;;4964136;28;20051;-82
2021/12/28 03:13:56;;;;;;;390.45;75.80;;;5.40;99.90;;;;;;4948874;28;20055;-83
2021/12/28 03:16:23;;;;;;;298.23;64.72;;;5.40;99.90;;;;;;4945345;28;20375;-83
2021/12/28 03:18:49;;;;;;;318.48;67.22;;;5.50;99.90;;;;;;4949472;28;20402;-82
2021/12/28 03:21:20;;;;;;;331.77;65.28;;;5.50;99.90;;;;;;4969154;28;20039;-82
2021/12/28 03:23:47;;;;;;;315.17;67.88;;;5.50;99.90;;;;;;4961691;28;20047;-82
2021/12/28 03:26:13;;;;;;;262.92;61.90;;;5.50;99.90;;;;;;4946451;28;20055;-82
2021/12/28 03:28:42;;;;;;;317.77;68.35;;;5.50;99.90;;;;;;4961933;28;20514;-82
2021/12/28 03:31:10;;;;;;;338.83;66.45;;;5.50;99.90;;;;;;4965624;28;20049;-82
2021/12/28 03:33:38;;;;;;;260.98;58.78;;;5.60;99.90;;;;;;4948211;28;20114;-82
2021/12/28 03:36:06;;;;;;;257.75;60.90;;;5.60;99.90;;;;;;4949953;28;20062;-82
2021/12/28 03:38:32;;;;;;;246.02;59.53;;;5.60;99.90;;;;;;4944308;28;20137;-82
2021/12/28 03:40:58;;;;;;;209.13;54.40;;;5.60;99.90;;;;;;4962836;28;20078;-82
2021/12/28 03:43:23;;;;;;;248.73;57.00;;;5.60;99.90;;;;;;4952334;28;20491;-82
2021/12/28 03:45:50;;;;;;;302.27;63.72;;;5.70;99.90;;;;;;4965611;28;20076;-83
2021/12/28 03:48:16;;;;;;;282.30;61.38;;;5.70;99.90;;;;;;4945598;28;20082;-82
2021/12/28 03:50:41;;;;;;;325.83;67.68;;;5.70;99.90;;;;;;4950412;28;20137;-83
2021/12/28 03:53:07;;;;;;;280.92;63.83;;;5.80;99.90;;;;;;4949688;28;20031;-82
2021/12/28 03:55:34;;;;;;;249.35;57.90;;;5.80;99.90;;;;;;4946665;28;20046;-82
2021/12/28 03:58:00;;;;;;;267.95;60.88;;;5.80;99.90;;;;;;4945554;28;20071;-82
2021/12/28 04:00:29;;;;;;;313.02;66.82;;;5.80;99.90;;;;;;4951426;28;20137;-82
2021/12/28 04:02:55;;;;;;;238.45;57.80;;;5.80;99.90;;;;;;4949911;28;20058;-82
2021/12/28 04:05:21;;;;;;;241.10;59.00;;;5.90;99.90;;;;;;4966339;28;20058;-83
2021/12/28 04:07:48;;;;;;;293.13;62.55;;;5.90;99.90;;;;;;4948159;28;20055;-82
2021/12/28 04:10:16;;;;;;;327.40;69.30;;;5.90;99.90;;;;;;4968176;28;20104;-82
2021/12/28 04:12:43;;;;;;;326.85;67.82;;;5.90;99.90;;;;;;4942627;28;20078;-82
2021/12/28 04:15:14;;;;;;;234.45;55.65;;;5.90;99.90;;;;;;4967989;28;20055;-82
2021/12/28 04:17:40;;;;;;;228.52;56.20;;;5.80;99.90;;;;;;4961859;28;20058;-82
2021/12/28 04:20:16;;;;;;;231.85;56.70;;;5.90;99.90;;;;;;4961970;28;20051;-82
2021/12/28 04:22:42;;;;;;;250.02;57.47;;;5.80;99.90;;;;;;4967520;28;20054;-82
2021/12/28 04:25:09;;;;;;;212.35;53.10;;;5.80;99.90;;;;;;4948577;28;20054;-82
2021/12/28 04:27:35;;;;;;;222.52;55.72;;;5.80;99.90;;;;;;4952334;28;20174;-82
2021/12/28 04:30:01;;;;;;;234.43;56.17;;;5.80;99.90;;;;;;4952193;28;20145;-83
2021/12/28 04:32:26;;;;;;;218.02;52.75;;;5.80;99.90;;;;;;4944483;28;20058;-82
2021/12/28 04:34:52;;;;;;;210.95;53.80;;;5.80;99.90;;;;;;4947591;28;20055;-82
2021/12/28 04:37:18;;;;;;;245.55;58.83;;;5.80;99.90;;;;;;4947924;28;20050;-82
2021/12/28 04:39:44;;;;;;;207.13;51.95;;;5.80;99.90;;;;;;4947977;28;20043;-83
2021/12/28 04:42:10;;;;;;;237.00;55.83;;;5.80;99.90;;;;;;4942631;28;20576;-82
2021/12/28 04:44:35;;;;;;;259.05;56.85;;;5.80;99.90;;;;;;4950179;28;20043;-82
2021/12/28 04:47:01;;;;;;;234.93;55.20;;;5.80;99.90;;;;;;4947453;28;20046;-82
2021/12/28 04:49:28;;;;;;;233.23;56.85;;;5.80;99.90;;;;;;4940113;28;20145;-82
2021/12/28 04:51:54;;;;;;;349.27;68.93;;;5.80;99.90;;;;;;4944573;29;20075;-82
2021/12/28 04:54:20;;;;;;;252.13;58.35;;;5.80;99.90;;;;;;4964149;28;20105;-82
2021/12/28 04:56:46;;;;;;;247.75;57.58;;;5.80;99.90;;;;;;4946055;28;20054;-82
2021/12/28 04:59:14;;;;;;;443.60;77.32;;;5.70;99.90;;;;;;4959150;28;20046;-82
2021/12/28 05:01:40;;;;;;;326.10;63.50;;;5.70;99.90;;;;;;4949329;28;20039;-82
2021/12/28 05:04:06;;;;;;;346.65;67.53;;;5.60;99.90;;;;;;4963754;28;20538;-82
2021/12/28 05:06:35;;;;;;;225.52;55.70;;;5.50;99.90;;;;;;4951156;28;20503;-82
2021/12/28 05:09:02;;;;;;;275.38;59.13;;;5.50;99.90;;;;;;4966633;28;20043;-82
2021/12/28 05:11:30;;;;;;;233.30;55.55;;;5.40;99.90;;;;;;4962002;28;20046;-82
2021/12/28 05:13:55;;;;;;;254.52;54.58;;;5.30;99.90;;;;;;4942355;28;20070;-82
2021/12/28 05:16:21;;;;;;;188.00;50.30;;;5.30;99.90;;;;;;4962121;28;20487;-82
2021/12/28 05:18:46;;;;;;;180.07;47.55;;;5.30;99.90;;;;;;4961993;28;20035;-82
2021/12/28 05:21:12;;;;;;;211.55;51.55;;;5.30;99.90;;;;;;4951526;28;20438;-82
2021/12/28 05:23:38;;;;;;;234.90;54.15;;;5.20;99.90;;;;;;4950461;28;20149;-82
2021/12/28 05:26:03;;;;;;;223.57;52.72;;;5.20;99.90;;;;;;4947018;28;20047;-82
2021/12/28 05:28:29;;;;;;;166.88;47.58;;;5.40;99.90;;;;;;4949802;28;20043;-82
2021/12/28 05:30:55;;;;;;;297.17;60.75;;;5.20;99.90;;;;;;4966432;28;20051;-82
2021/12/28 05:33:21;;;;;;;258.00;56.60;;;5.20;99.90;;;;;;4945905;28;20219;-82
2021/12/28 05:35:46;;;;;;;144.98;43.75;;;5.20;99.90;;;;;;4947661;28;20533;-82
2021/12/28 05:38:12;;;;;;;232.27;53.80;;;5.10;99.90;;;;;;4945637;28;20079;-82
2021/12/28 05:40:39;;;;;;;179.18;46.90;;;5.10;99.90;;;;;;4948347;28;20058;-82
2021/12/28 05:43:05;;;;;;;181.10;47.00;;;5.10;99.90;;;;;;4949207;28;20047;-82
2021/12/28 05:45:31;;;;;;;159.50;44.25;;;5.20;99.90;;;;;;4948399;28;20043;-82
2021/12/28 05:47:56;;;;;;;121.30;39.90;;;5.10;99.90;;;;;;4946111;28;20035;-82
2021/12/28 05:50:22;;;;;;;197.35;47.58;;;5.10;99.90;;;;;;4962185;28;20043;-82
2021/12/28 05:52:48;;;;;;;133.20;38.58;;;5.10;99.90;;;;;;4941809;28;20055;-83
2021/12/28 05:55:14;;;;;;;149.45;42.80;;;5.10;99.90;;;;;;4946714;28;20402;-82
2021/12/28 05:57:39;;;;;;;172.57;42.33;;;5.10;99.90;;;;;;4950675;28;20105;-82
2021/12/28 06:00:10;;;;;;;142.23;41.17;;;5.10;99.90;;;;;;4946747;28;20050;-82
2021/12/28 06:02:35;;;;;;;128.65;39.05;;;5.10;99.90;;;;;;4950425;28;20043;-82
2021/12/28 06:05:01;;;;;;;124.78;38.15;;;5.10;99.90;;;;;;4946743;28;20050;-82
2021/12/28 06:07:27;;;;;;;151.10;41.85;;;5.10;99.90;;;;;;4949448;28;20045;-82
2021/12/28 06:09:57;;;;;;;121.95;38.70;;;5.10;99.90;;;;;;4945312;28;20055;-82
2021/12/28 06:12:23;;;;;;;145.73;40.22;;;5.30;99.90;;;;;;4957008;28;20047;-82
2021/12/28 06:14:50;;;;;;;136.85;40.55;;;5.10;99.90;;;;;;4950967;28;20070;-82
2021/12/28 06:17:17;;;;;;;112.53;37.65;;;5.00;99.90;;;;;;4947851;28;20490;-82
2021/12/28 06:19:42;;;;;;;146.68;40.33;;;5.00;99.90;;;;;;4948284;28;20067;-82
2021/12/28 06:22:08;;;;;;;143.80;38.08;;;5.10;99.90;;;;;;4967892;28;20125;-84
2021/12/28 06:24:34;;;;;;;116.65;36.58;;;5.00;99.90;;;;;;4951286;28;20046;-81
2021/12/28 06:26:59;;;;;;;120.05;36.53;;;5.00;99.90;;;;;;4953028;28;20051;-82
2021/12/28 06:29:25;;;;;;;137.23;38.50;;;5.00;99.90;;;;;;4952921;28;20375;-82
2021/12/28 06:31:51;;;;;;;125.10;36.88;;;5.00;99.90;;;;;;4969295;28;20098;-82
2021/12/28 06:34:17;;;;;;;110.22;34.45;;;4.90;99.90;;;;;;4948633;28;20114;-83
2021/12/28 06:36:43;;;;;;;111.70;37.13;;;4.90;99.90;;;;;;4944899;28;20386;-83
2021/12/28 06:39:11;;;;;;;109.68;35.13;;;4.90;99.90;;;;;;4964144;28;20051;-84
2021/12/28 06:41:38;;;;;;;129.10;37.63;;;4.90;99.90;;;;;;4951596;28;20078;-84
2021/12/28 06:44:09;;;;;;;120.38;36.05;;;4.90;99.90;;;;;;4952559;28;20043;-82
2021/12/28 06:46:35;;;;;;;136.27;39.40;;;4.90;99.90;;;;;;4947825;28;20043;-82
2021/12/28 06:49:01;;;;;;;128.23;37.50;;;4.90;99.90;;;;;;4946767;28;20046;-83
2021/12/28 06:51:27;;;;;;;129.45;38.75;;;4.90;99.90;;;;;;4967117;28;20049;-82
2021/12/28 06:53:53;;;;;;;116.75;37.13;;;4.90;99.90;;;;;;4951918;28;20055;-82
2021/12/28 06:56:18;;;;;;;109.68;35.53;;;4.90;99.90;;;;;;4946803;28;20506;-82
2021/12/28 06:58:44;;;;;;;137.60;37.55;;;4.90;99.90;;;;;;4942610;28;20137;-82
2021/12/28 07:01:10;;;;;;;108.00;35.58;;;4.90;99.90;;;;;;4950756;28;20436;-82
2021/12/28 07:03:36;;;;;;;139.15;39.28;;;4.90;99.90;;;;;;4964010;28;20043;-81
2021/12/28 07:06:02;;;;;;;130.23;36.50;;;4.90;99.90;;;;;;4950083;28;20233;-82
2021/12/28 07:08:28;;;;;;;125.93;36.88;;;4.90;99.90;;;;;;4961595;28;20046;-83
2021/12/28 07:10:54;;;;;;;120.55;35.47;;;4.90;99.90;;;;;;4957571;28;20443;-84
2021/12/28 07:13:20;;;;;;;117.95;35.95;;;5.00;99.90;;;;;;4948232;28;20173;-83
2021/12/28 07:15:45;;;;;;;121.30;35.53;;;4.90;99.90;;;;;;4945643;28;20049;-84
2021/12/28 07:18:11;;;;;;;118.00;34.25;;;4.90;99.90;;;;;;4962778;28;20049;-83
2021/12/28 07:20:37;;;;;;;125.72;35.35;;;4.90;99.90;;;;;;4950624;28;20049;-83
2021/12/28 07:23:02;;;;;;;115.88;34.70;;;5.00;99.90;;;;;;4970662;28;20448;-84
2021/12/28 07:25:29;;;;;;;113.32;33.67;;;5.10;99.90;;;;;;4951583;28;20047;-81
2021/12/28 07:27:54;;;;;;;102.50;32.08;;;5.00;99.90;;;;;;4967282;28;20074;-83
2021/12/28 07:30:20;;;;;;;99.28;29.90;;;5.00;99.90;;;;;;4951256;28;20130;-84
2021/12/28 07:32:46;;;;;;;99.28;31.13;;;5.10;99.90;;;;;;4965920;28;20057;-82
2021/12/28 07:35:11;;;;;;;94.70;30.95;;;5.10;99.90;;;;;;4945721;28;20189;-83
2021/12/28 07:37:37;;;;;;;98.72;31.08;;;5.10;99.90;;;;;;4943577;28;20047;-83
2021/12/28 07:40:05;;;;;;;99.55;30.85;;;5.10;99.90;;;;;;4959522;28;20043;-83
2021/12/28 07:42:31;;;;;;;92.68;28.83;;;5.10;99.90;;;;;;4961953;28;20486;-83
2021/12/28 07:44:56;;;;;;;100.13;30.20;;;5.10;99.90;;;;;;4950260;28;20050;-83
2021/12/28 07:47:22;;;;;;;92.78;30.50;;;5.20;99.90;;;;;;4968855;28;20049;-83
2021/12/28 07:49:48;;;;;;;89.72;29.90;;;5.20;99.90;;;;;;4948226;28;20655;-83
2021/12/28 07:52:13;;;;;;;76.47;27.00;;;5.20;99.90;;;;;;4950305;28;20078;-83
2021/12/28 07:54:39;;;;;;;86.72;29.70;;;5.20;99.90;;;;;;4965340;28;20082;-83
2021/12/28 07:57:05;;;;;;;93.18;30.25;;;5.20;99.90;;;;;;4967335;28;20034;-84
2021/12/28 07:59:30;;;;;;;72.13;25.70;;;5.20;99.90;;;;;;4967722;28;20046;-83
2021/12/28 08:01:56;;;;;;;83.28;27.45;;;5.20;99.90;;;;;;4971312;28;20049;-84
2021/12/28 08:04:21;;;;;;;72.82;25.77;;;5.20;99.90;;;;;;4968354;28;21386;-83
2021/12/28 08:06:47;;;;;;;62.35;23.90;;;5.20;99.90;;;;;;4963711;28;20487;-84
2021/12/28 08:09:12;;;;;;;67.82;25.90;;;5.20;99.90;;;;;;4963894;28;20444;-82
2021/12/28 08:11:38;;;;;;;59.67;23.17;;;5.20;99.90;;;;;;4962058;28;20521;-81
2021/12/28 08:14:04;;;;;;;72.80;23.67;;;5.20;99.90;;;;;;4948352;28;20630;-81
2021/12/28 08:16:30;;;;;;;67.93;24.65;;;5.30;99.90;;;;;;4965119;28;20039;-81
2021/12/28 08:18:56;;;;;;;62.00;22.63;;;5.30;99.90;;;;;;4948502;28;20058;-82
2021/12/28 08:21:22;;;;;;;52.35;22.17;;;5.30;99.90;;;;;;4968369;28;20039;-81
2021/12/28 08:23:48;;;;;;;57.85;19.65;;;5.30;99.90;;;;;;4965614;28;20051;-80
2021/12/28 08:26:16;;;;;;;53.97;21.05;;;5.30;99.90;;;;;;4942022;28;20043;-80
2021/12/28 08:28:42;;;;;;;60.35;21.17;;;5.30;99.90;;;;;;4963647;28;20075;-81
2021/12/28 08:31:07;;;;;;;53.05;19.65;;;5.40;99.90;;;;;;4951655;28;20058;-81
2021/12/28 08:33:33;;;;;;;46.65;17.38;;;5.40;99.90;;;;;;4947947;28;20051;-80
2021/12/28 08:35:59;;;;;;;44.05;19.20;;;5.40;99.90;;;;;;4943419;28;20109;-80
2021/12/28 08:38:24;;;;;;;53.90;19.42;;;5.40;99.90;;;;;;4950457;28;20061;-79
2021/12/28 08:40:50;;;;;;;49.13;18.40;;;5.40;99.90;;;;;;4965455;28;20047;-81
2021/12/28 08:43:16;;;;;;;49.80;18.58;;;5.40;99.90;;;;;;4948242;28;20158;-79
2021/12/28 08:45:42;;;;;;;43.92;16.35;;;5.50;99.90;;;;;;4947632;28;20701;-83
2021/12/28 08:48:11;;;;;;;52.97;18.17;;;5.50;99.90;;;;;;4948674;28;20043;-84
2021/12/28 08:50:38;;;;;;;55.00;17.17;;;5.50;99.90;;;;;;4946505;28;20065;-81
2021/12/28 08:53:04;;;;;;;42.70;15.68;;;5.60;99.90;;;;;;4947236;28;20685;-83
2021/12/28 08:55:30;;;;;;;51.30;16.65;;;5.60;99.90;;;;;;4965497;28;20514;-80
2021/12/28 08:57:56;;;;;;;41.65;14.43;;;5.70;99.90;;;;;;4948799;28;20046;-83
2021/12/28 09:00:24;;;;;;;39.72;15.40;;;5.70;99.90;;;;;;4966510;28;20039;-82
2021/12/28 09:02:52;;;;;;;39.80;16.05;;;5.70;99.90;;;;;;4962334;28;20047;-84
2021/12/28 09:05:18;;;;;;;39.25;15.27;;;5.80;99.90;;;;;;4964728;28;20045;-82
2021/12/28 09:07:44;;;;;;;42.03;15.27;;;5.80;99.90;;;;;;4966235;28;20051;-82
2021/12/28 09:10:10;;;;;;;39.33;14.85;;;5.90;99.90;;;;;;4956901;28;20094;-82
2021/12/28 09:12:36;;;;;;;35.13;12.98;;;5.80;99.90;;;;;;4942804;28;20046;-81
2021/12/28 09:15:04;;;;;;;33.65;12.75;;;5.80;99.90;;;;;;4967116;28;20514;-83
2021/12/28 09:17:30;;;;;;;38.70;13.95;;;5.80;99.90;;;;;;4958377;28;20079;-82
2021/12/28 09:19:55;;;;;;;26.17;11.73;;;5.90;99.90;;;;;;4968083;28;20770;-84
2021/12/28 09:22:21;;;;;;;30.27;11.25;;;5.90;99.90;;;;;;4968428;28;20439;-81
2021/12/28 09:24:46;;;;;;;33.92;12.70;;;5.90;99.90;;;;;;4959105;28;20048;-82
2021/12/28 09:27:12;;;;;;;31.25;13.00;;;6.00;99.90;;;;;;4944979;28;20050;-80
2021/12/28 09:29:42;;;;;;;34.65;12.73;;;6.10;99.90;;;;;;4968000;28;20756;-82
2021/12/28 09:32:08;;;;;;;33.13;12.05;;;6.10;99.90;;;;;;4944592;28;20066;-81
2021/12/28 09:34:34;;;;;;;34.83;12.80;;;6.10;99.90;;;;;;4938245;28;20118;-83
2021/12/28 09:36:59;;;;;;;37.92;13.27;;;6.10;99.90;;;;;;4946421;28;20061;-83
2021/12/28 09:39:28;;;;;;;32.83;12.45;;;6.20;99.90;;;;;;4947005;28;20045;-82
2021/12/28 09:41:58;;;;;;;30.67;11.90;;;6.20;99.90;;;;;;4947267;28;20447;-85
2021/12/28 09:44:25;;;;;;;27.58;10.77;;;6.20;99.90;;;;;;4948283;28;20047;-83
2021/12/28 09:46:51;;;;;;;31.90;10.88;;;6.20;99.90;;;;;;4964467;28;20050;-83
2021/12/28 09:49:17;;;;;;;31.48;12.15;;;6.20;99.90;;;;;;4946337;28;20407;-82
2021/12/28 09:51:42;;;;;;;36.83;10.57;;;6.20;99.90;;;;;;4947733;28;20055;-80
2021/12/28 09:54:08;;;;;;;31.75;11.77;;;6.80;99.90;;;;;;4967320;28;20146;-80
2021/12/28 09:56:36;;;;;;;33.42;10.88;;;6.30;99.90;;;;;;4956953;28;20038;-82
2021/12/28 09:59:02;;;;;;;32.15;10.25;;;6.30;99.90;;;;;;4950882;28;20414;-82
2021/12/28 10:01:28;;;;;;;32.08;10.77;;;6.40;99.90;;;;;;4948423;28;20055;-80
2021/12/28 10:03:55;;;;;;;30.10;10.20;;;6.50;99.90;;;;;;4964088;28;20103;-80
2021/12/28 10:06:26;;;;;;;28.92;10.20;;;6.40;99.90;;;;;;4948129;28;20051;-83
2021/12/28 10:09:03;;;;;;;31.35;10.80;;;6.50;99.90;;;;;;4952996;28;20069;-81
2021/12/28 10:11:40;;;;;;;27.05;10.70;;;6.50;99.90;;;;;;4947790;28;20364;-84
2021/12/28 10:14:27;;;;;;;29.00;10.10;;;6.50;99.90;;;;;;4949876;28;20053;-83
2021/12/28 10:16:56;;;;;;;27.80;9.52;;;6.50;99.90;;;;;;4953283;28;20058;-83
2021/12/28 10:19:34;;;;;;;25.58;8.70;;;6.60;99.90;;;;;;4955029;28;20050;-83
2021/12/28 10:22:18;;;;;;;28.90;9.23;;;6.60;99.90;;;;;;4949657;28;20043;-83
2021/12/28 10:24:44;;;;;;;26.35;9.77;;;6.60;99.90;;;;;;4955929;28;20082;-83
2021/12/28 10:27:15;;;;;;;26.02;9.73;;;6.70;99.90;;;;;;4950138;28;20510;-83
2021/12/28 10:29:42;;;;;;;30.45;8.30;;;6.70;99.90;;;;;;4954004;28;20790;-83
2021/12/28 10:32:24;;;;;;;28.77;9.18;;;6.70;99.90;;;;;;4948201;29;20047;-83
2021/12/28 10:34:54;;;;;;;29.35;9.45;;;6.70;99.90;;;;;;4968176;28;20118;-84
2021/12/28 10:37:26;;;;;;;28.70;9.20;;;6.70;99.90;;;;;;4972643;28;20054;-83
2021/12/28 10:39:56;;;;;;;29.65;9.57;;;6.80;99.90;;;;;;4953776;28;20082;-84
2021/12/28 10:43:03;;;;;;;32.70;9.50;;;6.80;99.90;;;;;;4941025;28;20118;-83
2021/12/28 10:45:37;;;;;;;28.17;8.80;;;6.80;99.90;;;;;;4940543;28;20055;-87
2021/12/28 10:48:04;;;;;;;;;;;6.80;99.90;;;;;;4960246;28;20163;-83
2021/12/28 10:50:40;;;;;;;24.80;9.20;;;6.90;99.90;;;;;;4959597;28;19922;-83
2021/12/28 10:53:18;;;;;;;24.60;9.82;;;6.90;99.90;;;;;;4954217;28;20090;-84
2021/12/28 10:55:45;;;;;;;37.28;9.82;;;6.90;99.90;;;;;;4946985;28;20058;-83
2021/12/28 10:58:22;;;;;;;27.15;10.13;;;6.90;99.90;;;;;;4961317;28;20078;-85
2021/12/28 11:00:47;;;;;;;27.50;9.80;;;6.90;99.90;;;;;;4947976;28;20050;-88
2021/12/28 11:03:14;;;;;;;27.88;10.75;;;6.90;99.90;;;;;;4943893;28;20047;-85
2021/12/28 11:05:41;;;;;;;28.23;10.77;;;7.00;99.90;;;;;;4946787;28;20436;-86
2021/12/28 11:08:08;;;;;;;24.60;10.45;;;6.90;99.90;;;;;;4971901;28;20051;-86
2021/12/28 11:10:35;;;;;;;25.67;11.32;;;7.00;99.90;;;;;;4953178;28;20043;-85
2021/12/28 11:13:03;;;;;;;28.85;10.52;;;6.90;99.90;;;;;;4944129;28;20109;-88
2021/12/28 11:15:32;;;;;;;26.35;11.35;;;6.90;99.90;;;;;;4964944;28;20051;-86
2021/12/28 11:17:57;;;;;;;34.25;11.20;;;7.00;99.90;;;;;;4950487;28;20380;-89
2021/12/28 11:20:30;;;;;;;31.00;11.98;;;7.00;99.90;;;;;;4956569;28;20049;-85
2021/12/28 11:23:11;;;;;;;25.55;10.63;;;7.10;99.90;;;;;;4945659;28;20043;-86
2021/12/28 11:25:38;;;;;;;23.83;11.13;;;7.00;99.90;;;;;;4947391;28;20050;-86
2021/12/28 11:28:20;;;;;;;22.92;11.68;;;7.00;99.90;;;;;;4961574;28;20047;-87
2021/12/28 11:30:59;;;;;;;26.15;12.35;;;7.00;99.90;;;;;;4965758;28;20075;-87
2021/12/28 11:33:48;;;;;;;32.50;12.90;;;7.00;99.90;;;;;;4949390;28;20091;-87
2021/12/28 11:36:16;;;;;;;31.80;12.80;;;7.10;99.90;;;;;;4946335;28;20051;-86
2021/12/28 11:38:43;;;;;;;28.15;12.80;;;7.10;99.90;;;;;;4948678;28;20047;-87
2021/12/28 11:41:09;;;;;;;26.92;12.73;;;7.10;99.90;;;;;;4950024;28;20573;-87
2021/12/28 11:43:37;;;;;;;26.30;12.95;;;7.40;99.90;;;;;;4963754;28;20053;-88
2021/12/28 11:46:04;;;;;;;35.03;13.20;;;7.10;99.90;;;;;;4941455;28;20521;-87
2021/12/28 11:48:31;;;;;;;31.98;13.82;;;7.10;99.90;;;;;;4947421;28;20058;-88
2021/12/28 11:50:57;;;;;;;27.13;12.98;;;7.10;99.90;;;;;;4970033;28;20072;-87
2021/12/28 11:53:24;;;;;;;28.85;12.73;;;7.10;99.90;;;;;;4950328;28;20074;-88
2021/12/28 11:55:51;;;;;;;33.13;13.20;;;7.10;99.90;;;;;;4951041;28;20054;-85
2021/12/28 11:58:16;;;;;;;26.27;13.70;;;7.20;99.90;;;;;;4949076;28;20043;-87
2021/12/28 12:00:44;;;;;;;32.55;13.82;;;7.20;99.90;;;;;;4949364;28;20055;-88
2021/12/28 12:03:33;;;;;;;28.75;13.98;;;7.20;99.90;;;;;;4947072;28;20122;-87
2021/12/28 12:05:59;;;;;;;31.45;13.70;;;7.20;99.90;;;;;;4963071;28;20043;-88
2021/12/28 12:08:25;;;;;;;29.55;13.18;;;7.20;99.90;;;;;;4955059;28;20130;-88
2021/12/28 12:11:02;;;;;;;26.45;13.43;;;7.20;99.90;;;;;;4964443;28;20134;-88
2021/12/28 12:13:30;;;;;;;24.40;12.55;;;7.70;99.90;;;;;;4937278;28;20488;-87
2021/12/28 12:16:03;;;;;;;28.23;12.27;;;7.20;99.90;;;;;;4946634;28;20043;-88
2021/12/28 12:18:43;;;;;;;28.98;11.82;;;7.20;99.90;;;;;;4945620;28;20055;-88
2021/12/28 12:21:16;;;;;;;31.15;12.15;;;7.20;99.90;;;;;;4944844;28;20039;-88
2021/12/28 12:23:48;;;;;;;26.00;11.57;;;7.20;99.90;;;;;;4951297;28;20039;-88
2021/12/28 12:26:24;;;;;;;21.35;12.20;;;7.30;99.90;;;;;;4944490;28;20046;-88
2021/12/28 12:28:52;;;;;;;22.05;11.55;;;7.30;99.90;;;;;;4947057;28;20991;-88
2021/12/28 12:31:25;;;;;;;25.75;11.57;;;7.30;99.90;;;;;;4949196;28;20054;-88
2021/12/28 12:33:51;;;;;;;19.33;10.80;;;7.30;99.90;;;;;;4945787;29;20099;-90
2021/12/28 12:42:12;;;;;;;25.33;12.05;;;7.20;99.90;;;;;;5116359;27;20353;-86
2021/12/28 12:44:40;;;;;;;22.60;12.38;;;7.30;99.90;;;;;;5099135;28;20048;-88